sensor_id;sensor_type;location;lat;lon;timestamp;P1;durP1;ratioP1;P2;durP2;ratioP2
17604;SDS011;8921;50.964;6.800;2023-04-24T00:00:09;3.10;;;1.20;;
17604;SDS011;8921;50.964;6.800;2023-04-24T00:02:37;4.90;;;1.60;;
17604;SDS011;8921;50.964;6.800;2023-04-24T00:05:06;4.10;;;1.23;;
17604;SDS011;8921;50.964;6.800;2023-04-24T00:07:34;3.50;;;1.33;;
17604;SDS011;8921;50.964;6.800;2023-04-24T00:10:02;4.60;;;1.70;;
17604;SDS011;8921;50.964;6.800;2023-04-24T00:12:31;3.67;;;1.27;;
17604;SDS011;8921;50.964;6.800;2023-04-24T00:17:30;4.20;;;1.33;;
17604;SDS011;8921;50.964;6.800;2023-04-24T00:19:58;4.10;;;1.50;;
17604;SDS011;8921;50.964;6.800;2023-04-24T00:22:27;3.60;;;1.40;;
17604;SDS011;8921;50.964;6.800;2023-04-24T00:24:55;3.90;;;1.50;;
17604;SDS011;8921;50.964;6.800;2023-04-24T00:27:23;3.47;;;1.30;;
17604;SDS011;8921;50.964;6.800;2023-04-24T00:29:51;4.53;;;1.50;;
17604;SDS011;8921;50.964;6.800;2023-04-24T00:32:20;3.83;;;1.40;;
17604;SDS011;8921;50.964;6.800;2023-04-24T00:34:48;3.90;;;1.57;;
17604;SDS011;8921;50.964;6.800;2023-04-24T00:37:16;4.00;;;1.70;;
17604;SDS011;8921;50.964;6.800;2023-04-24T00:39:44;5.47;;;1.60;;
17604;SDS011;8921;50.964;6.800;2023-04-24T00:42:13;5.23;;;1.57;;
17604;SDS011;8921;50.964;6.800;2023-04-24T00:44:41;5.20;;;1.60;;
17604;SDS011;8921;50.964;6.800;2023-04-24T00:47:10;4.60;;;1.30;;
17604;SDS011;8921;50.964;6.800;2023-04-24T00:49:38;3.70;;;1.60;;
17604;SDS011;8921;50.964;6.800;2023-04-24T00:52:06;3.50;;;1.50;;
17604;SDS011;8921;50.964;6.800;2023-04-24T00:54:35;4.60;;;1.53;;
17604;SDS011;8921;50.964;6.800;2023-04-24T00:57:03;3.60;;;1.50;;
17604;SDS011;8921;50.964;6.800;2023-04-24T00:59:31;5.70;;;1.73;;
17604;SDS011;8921;50.964;6.800;2023-04-24T01:01:59;4.03;;;1.80;;
17604;SDS011;8921;50.964;6.800;2023-04-24T01:04:27;4.67;;;1.77;;
17604;SDS011;8921;50.964;6.800;2023-04-24T01:06:56;5.00;;;1.70;;
17604;SDS011;8921;50.964;6.800;2023-04-24T01:09:24;6.50;;;1.60;;
17604;SDS011;8921;50.964;6.800;2023-04-24T01:11:52;4.97;;;1.73;;
17604;SDS011;8921;50.964;6.800;2023-04-24T01:14:20;4.80;;;1.80;;
17604;SDS011;8921;50.964;6.800;2023-04-24T01:16:49;5.40;;;2.10;;
17604;SDS011;8921;50.964;6.800;2023-04-24T01:19:17;4.53;;;2.20;;
17604;SDS011;8921;50.964;6.800;2023-04-24T01:21:45;6.40;;;1.90;;
17604;SDS011;8921;50.964;6.800;2023-04-24T01:24:13;5.27;;;2.20;;
17604;SDS011;8921;50.964;6.800;2023-04-24T01:26:42;5.03;;;2.10;;
17604;SDS011;8921;50.964;6.800;2023-04-24T01:29:10;5.33;;;2.60;;
17604;SDS011;8921;50.964;6.800;2023-04-24T01:31:39;6.20;;;2.57;;
17604;SDS011;8921;50.964;6.800;2023-04-24T01:34:07;5.63;;;3.23;;
17604;SDS011;8921;50.964;6.800;2023-04-24T01:36:35;7.50;;;3.30;;
17604;SDS011;8921;50.964;6.800;2023-04-24T01:39:03;5.93;;;2.83;;
17604;SDS011;8921;50.964;6.800;2023-04-24T01:41:31;7.00;;;3.70;;
17604;SDS011;8921;50.964;6.800;2023-04-24T01:44:00;5.60;;;3.13;;
17604;SDS011;8921;50.964;6.800;2023-04-24T01:46:28;9.20;;;3.90;;
17604;SDS011;8921;50.964;6.800;2023-04-24T01:48:56;6.20;;;4.13;;
17604;SDS011;8921;50.964;6.800;2023-04-24T01:51:25;6.90;;;4.23;;
17604;SDS011;8921;50.964;6.800;2023-04-24T01:53:53;9.10;;;3.40;;
17604;SDS011;8921;50.964;6.800;2023-04-24T01:56:21;6.50;;;4.00;;
17604;SDS011;8921;50.964;6.800;2023-04-24T01:58:50;8.43;;;5.00;;
17604;SDS011;8921;50.964;6.800;2023-04-24T02:01:18;16.47;;;5.63;;
17604;SDS011;8921;50.964;6.800;2023-04-24T02:03:46;12.13;;;5.30;;
17604;SDS011;8921;50.964;6.800;2023-04-24T02:06:14;8.87;;;4.70;;
17604;SDS011;8921;50.964;6.800;2023-04-24T02:08:42;9.60;;;5.40;;
17604;SDS011;8921;50.964;6.800;2023-04-24T02:11:11;9.37;;;5.60;;
17604;SDS011;8921;50.964;6.800;2023-04-24T02:13:39;9.33;;;6.43;;
17604;SDS011;8921;50.964;6.800;2023-04-24T02:16:07;11.87;;;6.10;;
17604;SDS011;8921;50.964;6.800;2023-04-24T02:18:35;9.40;;;6.07;;
17604;SDS011;8921;50.964;6.800;2023-04-24T02:21:04;10.93;;;7.47;;
17604;SDS011;8921;50.964;6.800;2023-04-24T02:23:32;10.90;;;7.00;;
17604;SDS011;8921;50.964;6.800;2023-04-24T02:26:00;9.87;;;6.20;;
17604;SDS011;8921;50.964;6.800;2023-04-24T02:28:28;13.30;;;6.50;;
17604;SDS011;8921;50.964;6.800;2023-04-24T02:30:57;13.30;;;7.07;;
17604;SDS011;8921;50.964;6.800;2023-04-24T02:33:25;10.53;;;6.03;;
17604;SDS011;8921;50.964;6.800;2023-04-24T02:35:53;11.37;;;6.73;;
17604;SDS011;8921;50.964;6.800;2023-04-24T02:38:22;11.33;;;6.30;;
17604;SDS011;8921;50.964;6.800;2023-04-24T02:40:50;9.37;;;5.70;;
17604;SDS011;8921;50.964;6.800;2023-04-24T02:43:18;13.00;;;6.07;;
17604;SDS011;8921;50.964;6.800;2023-04-24T02:45:46;10.00;;;5.73;;
17604;SDS011;8921;50.964;6.800;2023-04-24T02:48:15;9.37;;;6.00;;
17604;SDS011;8921;50.964;6.800;2023-04-24T02:50:43;8.30;;;5.30;;
17604;SDS011;8921;50.964;6.800;2023-04-24T02:53:11;11.67;;;5.60;;
17604;SDS011;8921;50.964;6.800;2023-04-24T02:55:39;8.97;;;5.90;;
17604;SDS011;8921;50.964;6.800;2023-04-24T02:58:08;12.67;;;6.97;;
17604;SDS011;8921;50.964;6.800;2023-04-24T03:00:36;9.00;;;5.63;;
17604;SDS011;8921;50.964;6.800;2023-04-24T03:03:04;11.77;;;6.43;;
17604;SDS011;8921;50.964;6.800;2023-04-24T03:05:33;11.90;;;7.40;;
17604;SDS011;8921;50.964;6.800;2023-04-24T03:08:01;7.53;;;5.27;;
17604;SDS011;8921;50.964;6.800;2023-04-24T03:10:29;12.50;;;7.37;;
17604;SDS011;8921;50.964;6.800;2023-04-24T03:12:57;9.67;;;6.43;;
17604;SDS011;8921;50.964;6.800;2023-04-24T03:15:26;10.13;;;6.27;;
17604;SDS011;8921;50.964;6.800;2023-04-24T03:17:54;11.13;;;7.53;;
17604;SDS011;8921;50.964;6.800;2023-04-24T03:20:22;11.27;;;8.00;;
17604;SDS011;8921;50.964;6.800;2023-04-24T03:22:51;11.97;;;7.63;;
17604;SDS011;8921;50.964;6.800;2023-04-24T03:25:19;12.17;;;7.90;;
17604;SDS011;8921;50.964;6.800;2023-04-24T03:27:47;11.17;;;7.40;;
17604;SDS011;8921;50.964;6.800;2023-04-24T03:30:15;12.93;;;8.00;;
17604;SDS011;8921;50.964;6.800;2023-04-24T03:32:44;11.60;;;7.53;;
17604;SDS011;8921;50.964;6.800;2023-04-24T03:35:12;14.83;;;7.60;;
17604;SDS011;8921;50.964;6.800;2023-04-24T03:37:40;14.13;;;8.13;;
17604;SDS011;8921;50.964;6.800;2023-04-24T03:40:09;12.40;;;8.00;;
17604;SDS011;8921;50.964;6.800;2023-04-24T03:42:37;12.30;;;7.87;;
17604;SDS011;8921;50.964;6.800;2023-04-24T03:45:05;11.83;;;8.17;;
17604;SDS011;8921;50.964;6.800;2023-04-24T03:47:34;16.20;;;8.67;;
17604;SDS011;8921;50.964;6.800;2023-04-24T03:50:02;16.27;;;8.30;;
17604;SDS011;8921;50.964;6.800;2023-04-24T03:52:30;10.67;;;8.13;;
17604;SDS011;8921;50.964;6.800;2023-04-24T03:54:59;14.10;;;7.60;;
17604;SDS011;8921;50.964;6.800;2023-04-24T03:57:27;12.63;;;7.23;;
17604;SDS011;8921;50.964;6.800;2023-04-24T03:59:55;9.80;;;6.33;;
17604;SDS011;8921;50.964;6.800;2023-04-24T04:02:23;12.97;;;7.77;;
17604;SDS011;8921;50.964;6.800;2023-04-24T04:04:52;13.13;;;7.23;;
17604;SDS011;8921;50.964;6.800;2023-04-24T04:07:20;10.93;;;6.37;;
17604;SDS011;8921;50.964;6.800;2023-04-24T04:09:48;14.00;;;8.87;;
17604;SDS011;8921;50.964;6.800;2023-04-24T04:12:17;9.60;;;6.50;;
17604;SDS011;8921;50.964;6.800;2023-04-24T04:14:45;10.67;;;6.70;;
17604;SDS011;8921;50.964;6.800;2023-04-24T04:17:13;11.67;;;7.30;;
17604;SDS011;8921;50.964;6.800;2023-04-24T04:19:41;10.60;;;7.30;;
17604;SDS011;8921;50.964;6.800;2023-04-24T04:22:10;11.10;;;7.13;;
17604;SDS011;8921;50.964;6.800;2023-04-24T04:24:38;9.97;;;6.30;;
17604;SDS011;8921;50.964;6.800;2023-04-24T04:27:06;11.10;;;6.33;;
17604;SDS011;8921;50.964;6.800;2023-04-24T04:29:34;10.33;;;6.30;;
17604;SDS011;8921;50.964;6.800;2023-04-24T04:32:03;13.37;;;6.40;;
17604;SDS011;8921;50.964;6.800;2023-04-24T04:34:31;10.70;;;6.60;;
17604;SDS011;8921;50.964;6.800;2023-04-24T04:36:59;9.23;;;5.60;;
17604;SDS011;8921;50.964;6.800;2023-04-24T04:39:28;9.33;;;5.77;;
17604;SDS011;8921;50.964;6.800;2023-04-24T04:41:56;8.50;;;6.07;;
17604;SDS011;8921;50.964;6.800;2023-04-24T04:44:24;14.40;;;7.77;;
17604;SDS011;8921;50.964;6.800;2023-04-24T04:46:52;14.30;;;7.20;;
17604;SDS011;8921;50.964;6.800;2023-04-24T04:49:21;12.00;;;7.73;;
17604;SDS011;8921;50.964;6.800;2023-04-24T04:51:49;11.57;;;6.30;;
17604;SDS011;8921;50.964;6.800;2023-04-24T04:54:17;9.17;;;5.73;;
17604;SDS011;8921;50.964;6.800;2023-04-24T04:56:45;9.83;;;5.57;;
17604;SDS011;8921;50.964;6.800;2023-04-24T04:59:14;8.10;;;5.03;;
17604;SDS011;8921;50.964;6.800;2023-04-24T05:01:42;9.67;;;6.10;;
17604;SDS011;8921;50.964;6.800;2023-04-24T05:04:13;7.50;;;4.80;;
17604;SDS011;8921;50.964;6.800;2023-04-24T05:06:42;10.17;;;5.57;;
17604;SDS011;8921;50.964;6.800;2023-04-24T05:09:10;11.47;;;6.60;;
17604;SDS011;8921;50.964;6.800;2023-04-24T05:11:38;8.53;;;5.60;;
17604;SDS011;8921;50.964;6.800;2023-04-24T05:14:06;12.73;;;7.63;;
17604;SDS011;8921;50.964;6.800;2023-04-24T05:16:35;7.93;;;5.37;;
17604;SDS011;8921;50.964;6.800;2023-04-24T05:19:03;10.67;;;6.17;;
17604;SDS011;8921;50.964;6.800;2023-04-24T05:21:31;22.20;;;6.13;;
17604;SDS011;8921;50.964;6.800;2023-04-24T05:24:00;10.47;;;5.23;;
17604;SDS011;8921;50.964;6.800;2023-04-24T05:26:28;8.90;;;5.97;;
17604;SDS011;8921;50.964;6.800;2023-04-24T05:28:56;14.10;;;7.30;;
17604;SDS011;8921;50.964;6.800;2023-04-24T05:31:24;9.23;;;6.33;;
17604;SDS011;8921;50.964;6.800;2023-04-24T05:33:53;9.57;;;6.47;;
17604;SDS011;8921;50.964;6.800;2023-04-24T05:36:21;13.20;;;6.87;;
17604;SDS011;8921;50.964;6.800;2023-04-24T05:38:49;11.00;;;6.57;;
17604;SDS011;8921;50.964;6.800;2023-04-24T05:41:17;10.80;;;6.43;;
17604;SDS011;8921;50.964;6.800;2023-04-24T05:43:46;9.90;;;6.17;;
17604;SDS011;8921;50.964;6.800;2023-04-24T05:46:14;7.63;;;4.80;;
17604;SDS011;8921;50.964;6.800;2023-04-24T05:48:42;10.13;;;5.93;;
17604;SDS011;8921;50.964;6.800;2023-04-24T05:51:11;10.57;;;5.87;;
17604;SDS011;8921;50.964;6.800;2023-04-24T05:53:39;16.77;;;5.40;;
17604;SDS011;8921;50.964;6.800;2023-04-24T05:56:07;10.33;;;5.07;;
17604;SDS011;8921;50.964;6.800;2023-04-24T05:58:35;8.57;;;5.83;;
17604;SDS011;8921;50.964;6.800;2023-04-24T06:01:04;7.30;;;4.07;;
17604;SDS011;8921;50.964;6.800;2023-04-24T06:03:32;8.30;;;4.10;;
17604;SDS011;8921;50.964;6.800;2023-04-24T06:06:00;9.43;;;4.00;;
17604;SDS011;8921;50.964;6.800;2023-04-24T06:08:28;9.00;;;3.73;;
17604;SDS011;8921;50.964;6.800;2023-04-24T06:10:57;6.70;;;3.53;;
17604;SDS011;8921;50.964;6.800;2023-04-24T06:13:25;6.20;;;3.00;;
17604;SDS011;8921;50.964;6.800;2023-04-24T06:15:53;8.80;;;3.80;;
17604;SDS011;8921;50.964;6.800;2023-04-24T06:18:22;8.23;;;3.67;;
17604;SDS011;8921;50.964;6.800;2023-04-24T06:20:50;7.80;;;3.90;;
17604;SDS011;8921;50.964;6.800;2023-04-24T06:23:18;6.93;;;2.80;;
17604;SDS011;8921;50.964;6.800;2023-04-24T06:25:46;4.40;;;2.43;;
17604;SDS011;8921;50.964;6.800;2023-04-24T06:28:15;4.97;;;2.93;;
17604;SDS011;8921;50.964;6.800;2023-04-24T06:30:43;4.00;;;1.97;;
17604;SDS011;8921;50.964;6.800;2023-04-24T06:33:11;4.50;;;2.20;;
17604;SDS011;8921;50.964;6.800;2023-04-24T06:35:40;4.00;;;2.10;;
17604;SDS011;8921;50.964;6.800;2023-04-24T06:38:08;6.83;;;2.60;;
17604;SDS011;8921;50.964;6.800;2023-04-24T06:40:36;5.50;;;2.63;;
17604;SDS011;8921;50.964;6.800;2023-04-24T06:43:05;5.60;;;2.30;;
17604;SDS011;8921;50.964;6.800;2023-04-24T06:45:33;4.33;;;2.30;;
17604;SDS011;8921;50.964;6.800;2023-04-24T06:48:01;6.00;;;3.13;;
17604;SDS011;8921;50.964;6.800;2023-04-24T06:50:29;6.50;;;3.00;;
17604;SDS011;8921;50.964;6.800;2023-04-24T06:52:58;5.13;;;2.53;;
17604;SDS011;8921;50.964;6.800;2023-04-24T06:55:26;4.60;;;2.43;;
17604;SDS011;8921;50.964;6.800;2023-04-24T06:57:54;12.83;;;4.13;;
17604;SDS011;8921;50.964;6.800;2023-04-24T07:00:22;5.40;;;3.00;;
17604;SDS011;8921;50.964;6.800;2023-04-24T07:02:51;6.70;;;3.40;;
17604;SDS011;8921;50.964;6.800;2023-04-24T07:05:19;5.53;;;3.20;;
17604;SDS011;8921;50.964;6.800;2023-04-24T07:07:47;5.30;;;2.90;;
17604;SDS011;8921;50.964;6.800;2023-04-24T07:10:16;5.60;;;3.00;;
17604;SDS011;8921;50.964;6.800;2023-04-24T07:12:44;5.27;;;2.90;;
17604;SDS011;8921;50.964;6.800;2023-04-24T07:15:12;6.57;;;3.33;;
17604;SDS011;8921;50.964;6.800;2023-04-24T07:17:40;6.90;;;3.90;;
17604;SDS011;8921;50.964;6.800;2023-04-24T07:20:12;6.73;;;3.83;;
17604;SDS011;8921;50.964;6.800;2023-04-24T07:22:40;8.37;;;4.30;;
17604;SDS011;8921;50.964;6.800;2023-04-24T07:25:08;4.80;;;3.03;;
17604;SDS011;8921;50.964;6.800;2023-04-24T07:27:37;7.63;;;3.00;;
17604;SDS011;8921;50.964;6.800;2023-04-24T07:30:05;8.40;;;3.63;;
17604;SDS011;8921;50.964;6.800;2023-04-24T07:32:33;4.53;;;2.40;;
17604;SDS011;8921;50.964;6.800;2023-04-24T07:35:02;4.83;;;2.87;;
17604;SDS011;8921;50.964;6.800;2023-04-24T07:37:30;6.00;;;2.60;;
17604;SDS011;8921;50.964;6.800;2023-04-24T07:39:58;6.60;;;3.40;;
17604;SDS011;8921;50.964;6.800;2023-04-24T07:42:27;4.57;;;2.43;;
17604;SDS011;8921;50.964;6.800;2023-04-24T07:44:55;7.97;;;4.80;;
17604;SDS011;8921;50.964;6.800;2023-04-24T07:47:23;4.10;;;2.20;;
17604;SDS011;8921;50.964;6.800;2023-04-24T07:49:51;5.00;;;1.90;;
17604;SDS011;8921;50.964;6.800;2023-04-24T07:52:20;3.67;;;1.77;;
17604;SDS011;8921;50.964;6.800;2023-04-24T07:54:48;5.80;;;2.30;;
17604;SDS011;8921;50.964;6.800;2023-04-24T07:57:16;4.00;;;1.73;;
17604;SDS011;8921;50.964;6.800;2023-04-24T07:59:45;3.60;;;1.73;;
17604;SDS011;8921;50.964;6.800;2023-04-24T08:02:13;5.50;;;2.33;;
17604;SDS011;8921;50.964;6.800;2023-04-24T08:04:41;4.00;;;2.00;;
17604;SDS011;8921;50.964;6.800;2023-04-24T08:07:09;6.80;;;1.83;;
17604;SDS011;8921;50.964;6.800;2023-04-24T08:09:38;4.97;;;2.10;;
17604;SDS011;8921;50.964;6.800;2023-04-24T08:12:06;4.30;;;2.03;;
17604;SDS011;8921;50.964;6.800;2023-04-24T08:14:34;6.53;;;2.10;;
17604;SDS011;8921;50.964;6.800;2023-04-24T08:17:02;5.57;;;2.80;;
17604;SDS011;8921;50.964;6.800;2023-04-24T08:19:31;4.60;;;2.40;;
17604;SDS011;8921;50.964;6.800;2023-04-24T08:21:59;4.67;;;2.00;;
17604;SDS011;8921;50.964;6.800;2023-04-24T08:24:27;4.73;;;2.00;;
17604;SDS011;8921;50.964;6.800;2023-04-24T08:26:55;5.47;;;2.30;;
17604;SDS011;8921;50.964;6.800;2023-04-24T08:29:24;10.67;;;2.83;;
17604;SDS011;8921;50.964;6.800;2023-04-24T08:31:52;4.93;;;2.40;;
17604;SDS011;8921;50.964;6.800;2023-04-24T08:34:21;3.83;;;1.90;;
17604;SDS011;8921;50.964;6.800;2023-04-24T08:36:49;4.10;;;2.10;;
17604;SDS011;8921;50.964;6.800;2023-04-24T08:39:17;6.03;;;2.10;;
17604;SDS011;8921;50.964;6.800;2023-04-24T08:41:45;4.00;;;1.93;;
17604;SDS011;8921;50.964;6.800;2023-04-24T08:44:13;6.10;;;3.23;;
17604;SDS011;8921;50.964;6.800;2023-04-24T08:46:42;5.00;;;2.80;;
17604;SDS011;8921;50.964;6.800;2023-04-24T08:49:13;5.43;;;2.80;;
17604;SDS011;8921;50.964;6.800;2023-04-24T08:51:41;9.00;;;2.70;;
17604;SDS011;8921;50.964;6.800;2023-04-24T08:54:09;5.37;;;2.97;;
17604;SDS011;8921;50.964;6.800;2023-04-24T08:56:37;6.07;;;3.43;;
17604;SDS011;8921;50.964;6.800;2023-04-24T08:59:06;9.43;;;4.50;;
17604;SDS011;8921;50.964;6.800;2023-04-24T09:01:34;8.47;;;3.83;;
17604;SDS011;8921;50.964;6.800;2023-04-24T09:04:02;7.33;;;4.03;;
17604;SDS011;8921;50.964;6.800;2023-04-24T09:06:31;6.80;;;3.80;;
17604;SDS011;8921;50.964;6.800;2023-04-24T09:09:02;8.07;;;5.00;;
17604;SDS011;8921;50.964;6.800;2023-04-24T09:11:30;6.90;;;4.57;;
17604;SDS011;8921;50.964;6.800;2023-04-24T09:13:58;10.00;;;5.50;;
17604;SDS011;8921;50.964;6.800;2023-04-24T09:16:26;8.20;;;5.17;;
17604;SDS011;8921;50.964;6.800;2023-04-24T09:18:55;11.00;;;5.60;;
17604;SDS011;8921;50.964;6.800;2023-04-24T09:21:23;12.30;;;6.20;;
17604;SDS011;8921;50.964;6.800;2023-04-24T09:23:58;9.43;;;5.70;;
17604;SDS011;8921;50.964;6.800;2023-04-24T09:26:32;8.17;;;5.33;;
17604;SDS011;8921;50.964;6.800;2023-04-24T09:29:00;11.53;;;6.40;;
17604;SDS011;8921;50.964;6.800;2023-04-24T09:31:28;10.53;;;5.90;;
17604;SDS011;8921;50.964;6.800;2023-04-24T09:36:26;15.40;;;7.73;;
17604;SDS011;8921;50.964;6.800;2023-04-24T09:38:57;12.30;;;6.60;;
17604;SDS011;8921;50.964;6.800;2023-04-24T09:41:24;10.10;;;7.00;;
17604;SDS011;8921;50.964;6.800;2023-04-24T09:43:53;13.03;;;6.87;;
17604;SDS011;8921;50.964;6.800;2023-04-24T09:46:20;14.13;;;7.33;;
17604;SDS011;8921;50.964;6.800;2023-04-24T09:48:48;11.33;;;6.93;;
17604;SDS011;8921;50.964;6.800;2023-04-24T09:51:17;17.73;;;7.77;;
17604;SDS011;8921;50.964;6.800;2023-04-24T09:53:45;11.27;;;6.93;;
17604;SDS011;8921;50.964;6.800;2023-04-24T09:56:13;10.97;;;6.47;;
17604;SDS011;8921;50.964;6.800;2023-04-24T09:58:42;11.50;;;6.60;;
17604;SDS011;8921;50.964;6.800;2023-04-24T10:01:10;10.57;;;6.07;;
17604;SDS011;8921;50.964;6.800;2023-04-24T10:03:38;10.30;;;5.60;;
17604;SDS011;8921;50.964;6.800;2023-04-24T10:06:06;8.90;;;4.60;;
17604;SDS011;8921;50.964;6.800;2023-04-24T10:08:35;8.90;;;5.10;;
17604;SDS011;8921;50.964;6.800;2023-04-24T10:11:03;9.27;;;5.30;;
17604;SDS011;8921;50.964;6.800;2023-04-24T10:13:31;11.50;;;5.30;;
17604;SDS011;8921;50.964;6.800;2023-04-24T10:16:00;8.97;;;4.67;;
17604;SDS011;8921;50.964;6.800;2023-04-24T10:18:28;8.03;;;4.93;;
17604;SDS011;8921;50.964;6.800;2023-04-24T10:20:59;11.87;;;5.87;;
17604;SDS011;8921;50.964;6.800;2023-04-24T10:23:27;7.60;;;3.90;;
17604;SDS011;8921;50.964;6.800;2023-04-24T10:25:55;15.33;;;4.83;;
17604;SDS011;8921;50.964;6.800;2023-04-24T10:28:24;10.53;;;4.37;;
17604;SDS011;8921;50.964;6.800;2023-04-24T10:30:52;10.37;;;4.70;;
17604;SDS011;8921;50.964;6.800;2023-04-24T10:33:20;22.30;;;3.63;;
17604;SDS011;8921;50.964;6.800;2023-04-24T10:35:48;9.60;;;3.73;;
17604;SDS011;8921;50.964;6.800;2023-04-24T10:38:18;6.80;;;3.57;;
17604;SDS011;8921;50.964;6.800;2023-04-24T10:40:45;8.80;;;4.30;;
17604;SDS011;8921;50.964;6.800;2023-04-24T10:43:15;19.43;;;6.30;;
17604;SDS011;8921;50.964;6.800;2023-04-24T10:45:42;18.73;;;5.70;;
17604;SDS011;8921;50.964;6.800;2023-04-24T10:48:10;11.80;;;4.33;;
17604;SDS011;8921;50.964;6.800;2023-04-24T10:50:50;9.07;;;4.43;;
17604;SDS011;8921;50.964;6.800;2023-04-24T10:53:18;10.70;;;5.30;;
17604;SDS011;8921;50.964;6.800;2023-04-24T10:55:47;8.73;;;4.07;;
17604;SDS011;8921;50.964;6.800;2023-04-24T10:58:15;10.87;;;4.00;;
17604;SDS011;8921;50.964;6.800;2023-04-24T11:00:43;12.07;;;4.70;;
17604;SDS011;8921;50.964;6.800;2023-04-24T11:03:31;9.23;;;4.60;;
17604;SDS011;8921;50.964;6.800;2023-04-24T11:05:59;8.13;;;4.30;;
17604;SDS011;8921;50.964;6.800;2023-04-24T11:19:24;13.57;;;4.63;;
17604;SDS011;8921;50.964;6.800;2023-04-24T11:21:55;10.13;;;4.67;;
17604;SDS011;8921;50.964;6.800;2023-04-24T11:32:34;13.33;;;4.63;;
17604;SDS011;8921;50.964;6.800;2023-04-24T11:34:58;11.23;;;4.50;;
17604;SDS011;8921;50.964;6.800;2023-04-24T11:37:35;14.17;;;5.27;;
17604;SDS011;8921;50.964;6.800;2023-04-24T11:40:06;11.77;;;5.37;;
17604;SDS011;8921;50.964;6.800;2023-04-24T11:42:36;9.23;;;5.27;;
17604;SDS011;8921;50.964;6.800;2023-04-24T11:45:08;12.33;;;5.53;;
17604;SDS011;8921;50.964;6.800;2023-04-24T11:47:39;9.20;;;4.90;;
17604;SDS011;8921;50.964;6.800;2023-04-24T11:50:08;12.33;;;4.83;;
17604;SDS011;8921;50.964;6.800;2023-04-24T11:52:40;9.90;;;5.50;;
17604;SDS011;8921;50.964;6.800;2023-04-24T11:55:28;11.10;;;4.47;;
17604;SDS011;8921;50.964;6.800;2023-04-24T11:57:44;10.70;;;4.80;;
17604;SDS011;8921;50.964;6.800;2023-04-24T12:00:30;9.50;;;5.00;;
17604;SDS011;8921;50.964;6.800;2023-04-24T12:02:43;12.73;;;5.20;;
17604;SDS011;8921;50.964;6.800;2023-04-24T12:05:21;12.40;;;4.53;;
17604;SDS011;8921;50.964;6.800;2023-04-24T12:07:52;7.17;;;4.57;;
17604;SDS011;8921;50.964;6.800;2023-04-24T12:10:20;11.37;;;5.13;;
17604;SDS011;8921;50.964;6.800;2023-04-24T12:12:48;16.63;;;5.33;;
17604;SDS011;8921;50.964;6.800;2023-04-24T12:15:17;11.17;;;5.10;;
17604;SDS011;8921;50.964;6.800;2023-04-24T12:17:45;14.93;;;6.33;;
17604;SDS011;8921;50.964;6.800;2023-04-24T12:20:13;15.80;;;5.20;;
17604;SDS011;8921;50.964;6.800;2023-04-24T12:22:52;14.63;;;7.77;;
17604;SDS011;8921;50.964;6.800;2023-04-24T12:25:23;11.00;;;5.60;;
17604;SDS011;8921;50.964;6.800;2023-04-24T12:27:54;18.23;;;5.90;;
17604;SDS011;8921;50.964;6.800;2023-04-24T12:30:25;13.27;;;6.00;;
17604;SDS011;8921;50.964;6.800;2023-04-24T12:32:49;12.70;;;5.50;;
17604;SDS011;8921;50.964;6.800;2023-04-24T12:35:24;15.73;;;5.33;;
17604;SDS011;8921;50.964;6.800;2023-04-24T12:37:51;9.70;;;4.93;;
17604;SDS011;8921;50.964;6.800;2023-04-24T12:40:20;13.63;;;5.53;;
17604;SDS011;8921;50.964;6.800;2023-04-24T12:42:49;10.80;;;4.87;;
17604;SDS011;8921;50.964;6.800;2023-04-24T12:45:19;13.60;;;5.47;;
17604;SDS011;8921;50.964;6.800;2023-04-24T12:47:48;13.67;;;4.93;;
17604;SDS011;8921;50.964;6.800;2023-04-24T12:50:16;12.47;;;5.80;;
17604;SDS011;8921;50.964;6.800;2023-04-24T12:52:44;10.70;;;5.10;;
17604;SDS011;8921;50.964;6.800;2023-04-24T12:55:12;10.93;;;5.23;;
17604;SDS011;8921;50.964;6.800;2023-04-24T12:57:40;11.90;;;4.70;;
17604;SDS011;8921;50.964;6.800;2023-04-24T13:00:09;9.10;;;4.20;;
17604;SDS011;8921;50.964;6.800;2023-04-24T13:02:37;11.10;;;4.20;;
17604;SDS011;8921;50.964;6.800;2023-04-24T13:05:06;15.03;;;5.57;;
17604;SDS011;8921;50.964;6.800;2023-04-24T13:07:34;18.40;;;5.20;;
17604;SDS011;8921;50.964;6.800;2023-04-24T13:10:02;7.33;;;4.93;;
17604;SDS011;8921;50.964;6.800;2023-04-24T13:12:31;13.60;;;6.10;;
17604;SDS011;8921;50.964;6.800;2023-04-24T13:14:59;15.83;;;6.00;;
17604;SDS011;8921;50.964;6.800;2023-04-24T13:17:27;8.47;;;5.37;;
17604;SDS011;8921;50.964;6.800;2023-04-24T13:19:55;10.70;;;5.50;;
17604;SDS011;8921;50.964;6.800;2023-04-24T13:22:24;12.97;;;6.00;;
17604;SDS011;8921;50.964;6.800;2023-04-24T13:24:52;13.27;;;5.27;;
17604;SDS011;8921;50.964;6.800;2023-04-24T13:27:20;8.27;;;4.97;;
17604;SDS011;8921;50.964;6.800;2023-04-24T13:29:49;8.07;;;4.63;;
17604;SDS011;8921;50.964;6.800;2023-04-24T13:32:17;11.77;;;4.83;;
17604;SDS011;8921;50.964;6.800;2023-04-24T13:34:45;8.57;;;4.43;;
17604;SDS011;8921;50.964;6.800;2023-04-24T13:37:13;10.40;;;5.10;;
17604;SDS011;8921;50.964;6.800;2023-04-24T13:39:42;10.13;;;4.20;;
17604;SDS011;8921;50.964;6.800;2023-04-24T13:42:10;8.17;;;4.20;;
17604;SDS011;8921;50.964;6.800;2023-04-24T13:44:38;8.77;;;4.47;;
17604;SDS011;8921;50.964;6.800;2023-04-24T13:47:06;11.90;;;5.03;;
17604;SDS011;8921;50.964;6.800;2023-04-24T13:49:35;10.17;;;4.63;;
17604;SDS011;8921;50.964;6.800;2023-04-24T13:52:03;11.90;;;4.40;;
17604;SDS011;8921;50.964;6.800;2023-04-24T13:54:31;11.40;;;4.80;;
17604;SDS011;8921;50.964;6.800;2023-04-24T13:57:00;13.90;;;5.13;;
17604;SDS011;8921;50.964;6.800;2023-04-24T13:59:28;10.13;;;4.03;;
17604;SDS011;8921;50.964;6.800;2023-04-24T14:01:56;10.00;;;4.23;;
17604;SDS011;8921;50.964;6.800;2023-04-24T14:04:24;9.20;;;4.30;;
17604;SDS011;8921;50.964;6.800;2023-04-24T14:06:53;8.70;;;5.03;;
17604;SDS011;8921;50.964;6.800;2023-04-24T14:09:21;8.30;;;4.53;;
17604;SDS011;8921;50.964;6.800;2023-04-24T14:11:49;16.83;;;4.70;;
17604;SDS011;8921;50.964;6.800;2023-04-24T14:14:17;14.00;;;6.13;;
17604;SDS011;8921;50.964;6.800;2023-04-24T14:16:46;7.90;;;4.23;;
17604;SDS011;8921;50.964;6.800;2023-04-24T14:19:14;14.63;;;4.30;;
17604;SDS011;8921;50.964;6.800;2023-04-24T14:21:42;7.83;;;4.40;;
17604;SDS011;8921;50.964;6.800;2023-04-24T14:24:11;10.80;;;4.77;;
17604;SDS011;8921;50.964;6.800;2023-04-24T14:26:39;12.03;;;4.40;;
17604;SDS011;8921;50.964;6.800;2023-04-24T14:29:09;9.03;;;4.50;;
17604;SDS011;8921;50.964;6.800;2023-04-24T14:31:37;14.97;;;5.07;;
17604;SDS011;8921;50.964;6.800;2023-04-24T14:34:06;13.07;;;4.87;;
17604;SDS011;8921;50.964;6.800;2023-04-24T14:36:34;9.67;;;5.27;;
17604;SDS011;8921;50.964;6.800;2023-04-24T14:39:02;11.50;;;5.03;;
17604;SDS011;8921;50.964;6.800;2023-04-24T14:41:30;16.13;;;5.33;;
17604;SDS011;8921;50.964;6.800;2023-04-24T14:43:59;7.20;;;4.23;;
17604;SDS011;8921;50.964;6.800;2023-04-24T14:46:27;26.67;;;5.93;;
17604;SDS011;8921;50.964;6.800;2023-04-24T14:48:56;12.53;;;4.77;;
17604;SDS011;8921;50.964;6.800;2023-04-24T14:51:24;8.80;;;4.13;;
17604;SDS011;8921;50.964;6.800;2023-04-24T14:53:52;8.13;;;4.20;;
17604;SDS011;8921;50.964;6.800;2023-04-24T14:56:21;7.33;;;3.63;;
17604;SDS011;8921;50.964;6.800;2023-04-24T14:58:50;8.10;;;3.63;;
17604;SDS011;8921;50.964;6.800;2023-04-24T15:01:18;8.17;;;3.80;;
17604;SDS011;8921;50.964;6.800;2023-04-24T15:03:46;7.17;;;3.73;;
17604;SDS011;8921;50.964;6.800;2023-04-24T15:06:14;11.80;;;5.00;;
17604;SDS011;8921;50.964;6.800;2023-04-24T15:08:43;10.03;;;4.30;;
17604;SDS011;8921;50.964;6.800;2023-04-24T15:11:11;14.97;;;5.30;;
17604;SDS011;8921;50.964;6.800;2023-04-24T15:13:39;12.93;;;4.00;;
17604;SDS011;8921;50.964;6.800;2023-04-24T15:16:07;9.50;;;4.80;;
17604;SDS011;8921;50.964;6.800;2023-04-24T15:18:36;9.97;;;3.97;;
17604;SDS011;8921;50.964;6.800;2023-04-24T15:21:04;14.03;;;4.43;;
17604;SDS011;8921;50.964;6.800;2023-04-24T15:23:32;6.97;;;4.40;;
17604;SDS011;8921;50.964;6.800;2023-04-24T15:26:01;9.23;;;4.53;;